sensor_id;sensor_type;location;lat;lon;timestamp;temperature;humidity
51725;DHT22;37801;53.224;6.552;2022-07-22T00:02:10;16.60;99.90
51725;DHT22;37801;53.224;6.552;2022-07-22T00:04:35;16.60;99.90
51725;DHT22;37801;53.224;6.552;2022-07-22T00:07:01;16.70;99.90
51725;DHT22;37801;53.224;6.552;2022-07-22T00:09:27;16.70;99.90
51725;DHT22;37801;53.224;6.552;2022-07-22T00:11:53;16.80;99.90
51725;DHT22;37801;53.224;6.552;2022-07-22T00:14:19;16.80;99.90
51725;DHT22;37801;53.224;6.552;2022-07-22T00:16:44;16.70;99.90
51725;DHT22;37801;53.224;6.552;2022-07-22T00:19:10;16.80;99.90
51725;DHT22;37801;53.224;6.552;2022-07-22T00:21:36;16.70;99.90
51725;DHT22;37801;53.224;6.552;2022-07-22T00:24:02;16.70;99.90
51725;DHT22;37801;53.224;6.552;2022-07-22T00:26:28;16.70;99.90
51725;DHT22;37801;53.224;6.552;2022-07-22T00:28:54;16.70;99.90
51725;DHT22;37801;53.224;6.552;2022-07-22T00:31:20;16.70;99.90
51725;DHT22;37801;53.224;6.552;2022-07-22T00:33:46;16.60;99.90
51725;DHT22;37801;53.224;6.552;2022-07-22T00:36:12;16.60;99.90
51725;DHT22;37801;53.224;6.552;2022-07-22T00:38:38;16.60;99.90
51725;DHT22;37801;53.224;6.552;2022-07-22T00:41:04;16.60;99.90
51725;DHT22;37801;53.224;6.552;2022-07-22T00:46:20;16.60;99.90
51725;DHT22;37801;53.224;6.552;2022-07-22T00:48:46;16.60;99.90
51725;DHT22;37801;53.224;6.552;2022-07-22T00:51:11;16.70;99.90
51725;DHT22;37801;53.224;6.552;2022-07-22T00:53:37;16.70;99.90
51725;DHT22;37801;53.224;6.552;2022-07-22T00:56:04;16.70;99.90
51725;DHT22;37801;53.224;6.552;2022-07-22T00:58:30;16.70;99.90
51725;DHT22;37801;53.224;6.552;2022-07-22T01:00:56;16.70;99.90
51725;DHT22;37801;53.224;6.552;2022-07-22T01:03:22;16.80;99.90
51725;DHT22;37801;53.224;6.552;2022-07-22T01:05:47;16.80;99.90
51725;DHT22;37801;53.224;6.552;2022-07-22T01:08:13;16.80;99.90
51725;DHT22;37801;53.224;6.552;2022-07-22T01:10:39;16.80;99.90
51725;DHT22;37801;53.224;6.552;2022-07-22T01:13:05;16.80;99.90
51725;DHT22;37801;53.224;6.552;2022-07-22T01:15:31;16.80;99.90
51725;DHT22;37801;53.224;6.552;2022-07-22T01:17:59;16.80;99.90
51725;DHT22;37801;53.224;6.552;2022-07-22T01:20:24;16.80;99.90
51725;DHT22;37801;53.224;6.552;2022-07-22T01:22:51;16.80;99.90
51725;DHT22;37801;53.224;6.552;2022-07-22T01:25:17;16.80;99.90
51725;DHT22;37801;53.224;6.552;2022-07-22T01:27:43;16.80;99.90
51725;DHT22;37801;53.224;6.552;2022-07-22T01:30:09;16.80;99.90
51725;DHT22;37801;53.224;6.552;2022-07-22T01:32:35;16.80;99.90
51725;DHT22;37801;53.224;6.552;2022-07-22T01:35:02;16.80;99.90
51725;DHT22;37801;53.224;6.552;2022-07-22T01:37:28;16.80;99.90
51725;DHT22;37801;53.224;6.552;2022-07-22T01:39:54;16.80;99.90
51725;DHT22;37801;53.224;6.552;2022-07-22T01:42:19;16.70;99.90
51725;DHT22;37801;53.224;6.552;2022-07-22T01:44:45;16.80;99.90
51725;DHT22;37801;53.224;6.552;2022-07-22T01:47:11;16.80;99.90
51725;DHT22;37801;53.224;6.552;2022-07-22T01:49:37;16.70;99.90
51725;DHT22;37801;53.224;6.552;2022-07-22T01:52:03;16.70;99.90
51725;DHT22;37801;53.224;6.552;2022-07-22T01:54:29;16.70;99.90
51725;DHT22;37801;53.224;6.552;2022-07-22T01:56:55;16.70;99.90
51725;DHT22;37801;53.224;6.552;2022-07-22T01:59:21;16.70;99.90
51725;DHT22;37801;53.224;6.552;2022-07-22T02:01:46;16.70;99.90
51725;DHT22;37801;53.224;6.552;2022-07-22T02:04:12;16.70;99.90
51725;DHT22;37801;53.224;6.552;2022-07-22T02:06:38;16.70;99.90
51725;DHT22;37801;53.224;6.552;2022-07-22T02:09:04;16.70;99.90
51725;DHT22;37801;53.224;6.552;2022-07-22T02:11:29;16.70;99.90
51725;DHT22;37801;53.224;6.552;2022-07-22T02:13:55;16.70;99.90
51725;DHT22;37801;53.224;6.552;2022-07-22T02:16:21;16.70;99.90
51725;DHT22;37801;53.224;6.552;2022-07-22T02:18:47;16.70;99.90
51725;DHT22;37801;53.224;6.552;2022-07-22T02:21:13;16.70;99.90
51725;DHT22;37801;53.224;6.552;2022-07-22T02:23:39;16.80;99.90
51725;DHT22;37801;53.224;6.552;2022-07-22T02:26:05;16.70;99.90
51725;DHT22;37801;53.224;6.552;2022-07-22T02:28:31;16.70;99.90
51725;DHT22;37801;53.224;6.552;2022-07-22T02:30:56;16.70;99.90
51725;DHT22;37801;53.224;6.552;2022-07-22T02:33:23;16.70;99.90
51725;DHT22;37801;53.224;6.552;2022-07-22T02:35:49;16.70;99.90
51725;DHT22;37801;53.224;6.552;2022-07-22T02:38:14;16.80;99.90
51725;DHT22;37801;53.224;6.552;2022-07-22T02:40:40;16.80;99.90
51725;DHT22;37801;53.224;6.552;2022-07-22T02:43:06;16.70;99.90
51725;DHT22;37801;53.224;6.552;2022-07-22T02:45:32;16.70;99.90
51725;DHT22;37801;53.224;6.552;2022-07-22T02:47:58;16.80;99.90
51725;DHT22;37801;53.224;6.552;2022-07-22T02:50:24;16.70;99.90
51725;DHT22;37801;53.224;6.552;2022-07-22T02:52:51;16.70;99.90
51725;DHT22;37801;53.224;6.552;2022-07-22T02:55:17;16.70;99.90
51725;DHT22;37801;53.224;6.552;2022-07-22T02:57:43;16.70;99.90
51725;DHT22;37801;53.224;6.552;2022-07-22T03:00:11;16.70;99.90
51725;DHT22;37801;53.224;6.552;2022-07-22T03:02:38;16.70;99.90
51725;DHT22;37801;53.224;6.552;2022-07-22T03:05:04;16.70;99.90
51725;DHT22;37801;53.224;6.552;2022-07-22T03:07:31;16.70;99.90
51725;DHT22;37801;53.224;6.552;2022-07-22T03:09:57;16.60;99.90
51725;DHT22;37801;53.224;6.552;2022-07-22T03:12:23;16.70;99.90
51725;DHT22;37801;53.224;6.552;2022-07-22T03:14:48;16.70;99.90
51725;DHT22;37801;53.224;6.552;2022-07-22T03:17:14;16.70;99.90
51725;DHT22;37801;53.224;6.552;2022-07-22T03:19:40;16.70;99.90
51725;DHT22;37801;53.224;6.552;2022-07-22T03:22:06;16.70;99.90
51725;DHT22;37801;53.224;6.552;2022-07-22T03:24:31;16.70;99.90
51725;DHT22;37801;53.224;6.552;2022-07-22T03:26:57;16.70;99.90
51725;DHT22;37801;53.224;6.552;2022-07-22T03:29:23;16.60;99.90
51725;DHT22;37801;53.224;6.552;2022-07-22T03:31:48;16.60;99.90
51725;DHT22;37801;53.224;6.552;2022-07-22T03:34:14;16.50;99.90
51725;DHT22;37801;53.224;6.552;2022-07-22T03:36:40;16.50;99.90
51725;DHT22;37801;53.224;6.552;2022-07-22T03:39:05;16.60;99.90
51725;DHT22;37801;53.224;6.552;2022-07-22T03:41:31;16.70;99.90
51725;DHT22;37801;53.224;6.552;2022-07-22T03:43:57;16.60;99.90
51725;DHT22;37801;53.224;6.552;2022-07-22T03:46:23;16.50;99.90
51725;DHT22;37801;53.224;6.552;2022-07-22T03:48:48;16.60;99.90
51725;DHT22;37801;53.224;6.552;2022-07-22T03:51:14;16.60;99.90
51725;DHT22;37801;53.224;6.552;2022-07-22T03:53:40;16.50;99.90
51725;DHT22;37801;53.224;6.552;2022-07-22T03:56:06;16.50;99.90
51725;DHT22;37801;53.224;6.552;2022-07-22T03:58:32;16.50;99.90
51725;DHT22;37801;53.224;6.552;2022-07-22T04:00:57;16.50;99.90
51725;DHT22;37801;53.224;6.552;2022-07-22T04:03:23;16.60;99.90
51725;DHT22;37801;53.224;6.552;2022-07-22T04:05:49;16.60;99.90
51725;DHT22;37801;53.224;6.552;2022-07-22T04:08:17;16.60;99.90
51725;DHT22;37801;53.224;6.552;2022-07-22T04:10:43;16.60;99.90
51725;DHT22;37801;53.224;6.552;2022-07-22T04:13:09;16.50;99.90
51725;DHT22;37801;53.224;6.552;2022-07-22T04:15:35;16.60;99.90
51725;DHT22;37801;53.224;6.552;2022-07-22T04:18:00;16.60;99.90
51725;DHT22;37801;53.224;6.552;2022-07-22T04:20:26;16.50;99.90
51725;DHT22;37801;53.224;6.552;2022-07-22T04:22:52;16.50;99.90
51725;DHT22;37801;53.224;6.552;2022-07-22T04:25:18;16.50;99.90
51725;DHT22;37801;53.224;6.552;2022-07-22T04:27:44;16.50;99.90
51725;DHT22;37801;53.224;6.552;2022-07-22T04:30:10;16.50;99.90
51725;DHT22;37801;53.224;6.552;2022-07-22T04:32:36;16.60;99.90
51725;DHT22;37801;53.224;6.552;2022-07-22T04:35:02;16.60;99.90
51725;DHT22;37801;53.224;6.552;2022-07-22T04:37:28;16.50;99.90
51725;DHT22;37801;53.224;6.552;2022-07-22T04:39:55;16.50;99.90
51725;DHT22;37801;53.224;6.552;2022-07-22T04:42:20;16.60;99.90
51725;DHT22;37801;53.224;6.552;2022-07-22T04:44:46;16.60;99.90
51725;DHT22;37801;53.224;6.552;2022-07-22T04:47:12;16.70;99.90
51725;DHT22;37801;53.224;6.552;2022-07-22T04:49:38;16.60;99.90
51725;DHT22;37801;53.224;6.552;2022-07-22T04:52:04;16.70;99.90
51725;DHT22;37801;53.224;6.552;2022-07-22T04:54:30;16.60;99.90
51725;DHT22;37801;53.224;6.552;2022-07-22T04:56:56;16.60;99.90
51725;DHT22;37801;53.224;6.552;2022-07-22T04:59:21;16.70;99.90
51725;DHT22;37801;53.224;6.552;2022-07-22T05:01:47;16.70;99.90
51725;DHT22;37801;53.224;6.552;2022-07-22T05:04:13;16.70;99.90
51725;DHT22;37801;53.224;6.552;2022-07-22T05:06:39;16.70;99.90
51725;DHT22;37801;53.224;6.552;2022-07-22T05:09:04;16.80;99.90
51725;DHT22;37801;53.224;6.552;2022-07-22T05:11:30;16.80;99.90
51725;DHT22;37801;53.224;6.552;2022-07-22T05:13:56;16.80;99.90
51725;DHT22;37801;53.224;6.552;2022-07-22T05:16:22;16.70;99.90
51725;DHT22;37801;53.224;6.552;2022-07-22T05:18:47;16.70;99.90
51725;DHT22;37801;53.224;6.552;2022-07-22T05:21:13;16.80;99.90
51725;DHT22;37801;53.224;6.552;2022-07-22T05:23:39;16.70;99.90
51725;DHT22;37801;53.224;6.552;2022-07-22T05:26:05;16.70;99.90
51725;DHT22;37801;53.224;6.552;2022-07-22T05:28:31;16.80;99.90
51725;DHT22;37801;53.224;6.552;2022-07-22T05:30:59;16.70;99.90
51725;DHT22;37801;53.224;6.552;2022-07-22T05:33:25;16.70;99.90
51725;DHT22;37801;53.224;6.552;2022-07-22T05:35:51;16.80;99.90
51725;DHT22;37801;53.224;6.552;2022-07-22T05:38:17;16.80;99.90
51725;DHT22;37801;53.224;6.552;2022-07-22T05:40:43;16.80;99.90
51725;DHT22;37801;53.224;6.552;2022-07-22T05:43:08;16.90;99.90
51725;DHT22;37801;53.224;6.552;2022-07-22T05:45:34;16.90;99.90
51725;DHT22;37801;53.224;6.552;2022-07-22T05:48:00;16.90;99.90
51725;DHT22;37801;53.224;6.552;2022-07-22T05:50:26;16.90;99.90
51725;DHT22;37801;53.224;6.552;2022-07-22T05:52:52;17.00;99.90
51725;DHT22;37801;53.224;6.552;2022-07-22T05:55:18;17.00;99.90
51725;DHT22;37801;53.224;6.552;2022-07-22T05:57:44;17.00;99.90
51725;DHT22;37801;53.224;6.552;2022-07-22T06:00:10;17.00;99.90
51725;DHT22;37801;53.224;6.552;2022-07-22T06:02:36;17.00;99.90
51725;DHT22;37801;53.224;6.552;2022-07-22T06:05:02;17.00;99.90
51725;DHT22;37801;53.224;6.552;2022-07-22T06:07:28;17.10;99.90
51725;DHT22;37801;53.224;6.552;2022-07-22T06:09:53;17.10;99.90
51725;DHT22;37801;53.224;6.552;2022-07-22T06:12:19;17.10;99.90
51725;DHT22;37801;53.224;6.552;2022-07-22T06:14:45;17.10;99.90
51725;DHT22;37801;53.224;6.552;2022-07-22T06:17:12;17.10;99.90
51725;DHT22;37801;53.224;6.552;2022-07-22T06:19:38;17.20;99.90
51725;DHT22;37801;53.224;6.552;2022-07-22T06:22:04;17.20;99.90
51725;DHT22;37801;53.224;6.552;2022-07-22T06:24:30;17.20;99.90
51725;DHT22;37801;53.224;6.552;2022-07-22T06:26:56;17.30;99.90
51725;DHT22;37801;53.224;6.552;2022-07-22T06:29:21;17.40;99.90
51725;DHT22;37801;53.224;6.552;2022-07-22T06:31:48;17.40;99.90
51725;DHT22;37801;53.224;6.552;2022-07-22T06:34:14;17.40;99.90
51725;DHT22;37801;53.224;6.552;2022-07-22T06:36:40;17.50;99.90
51725;DHT22;37801;53.224;6.552;2022-07-22T06:39:06;17.50;99.90
51725;DHT22;37801;53.224;6.552;2022-07-22T06:41:31;17.50;99.90
51725;DHT22;37801;53.224;6.552;2022-07-22T06:43:57;17.50;99.90
51725;DHT22;37801;53.224;6.552;2022-07-22T06:46:23;17.50;99.90
51725;DHT22;37801;53.224;6.552;2022-07-22T06:48:48;17.60;99.90
51725;DHT22;37801;53.224;6.552;2022-07-22T06:51:14;17.60;99.90
51725;DHT22;37801;53.224;6.552;2022-07-22T06:53:41;17.60;99.90
51725;DHT22;37801;53.224;6.552;2022-07-22T06:56:07;17.60;99.90
51725;DHT22;37801;53.224;6.552;2022-07-22T06:58:33;17.60;99.90
51725;DHT22;37801;53.224;6.552;2022-07-22T07:00:58;17.70;99.90
51725;DHT22;37801;53.224;6.552;2022-07-22T07:03:24;17.80;99.90
51725;DHT22;37801;53.224;6.552;2022-07-22T07:05:52;17.80;99.90
51725;DHT22;37801;53.224;6.552;2022-07-22T07:08:18;17.80;99.90
51725;DHT22;37801;53.224;6.552;2022-07-22T07:10:43;17.90;99.90
51725;DHT22;37801;53.224;6.552;2022-07-22T07:13:09;17.90;99.90
51725;DHT22;37801;53.224;6.552;2022-07-22T07:15:35;17.90;99.90
51725;DHT22;37801;53.224;6.552;2022-07-22T07:18:01;17.90;99.90
51725;DHT22;37801;53.224;6.552;2022-07-22T07:20:27;18.00;99.90
51725;DHT22;37801;53.224;6.552;2022-07-22T07:22:53;18.00;99.90
51725;DHT22;37801;53.224;6.552;2022-07-22T07:25:19;18.10;99.90
51725;DHT22;37801;53.224;6.552;2022-07-22T07:27:44;18.00;99.90
51725;DHT22;37801;53.224;6.552;2022-07-22T07:30:11;18.10;99.90
51725;DHT22;37801;53.224;6.552;2022-07-22T07:32:37;18.10;99.90
51725;DHT22;37801;53.224;6.552;2022-07-22T07:35:05;18.10;99.90
51725;DHT22;37801;53.224;6.552;2022-07-22T07:37:31;18.20;99.90
51725;DHT22;37801;53.224;6.552;2022-07-22T07:39:57;18.20;99.90
51725;DHT22;37801;53.224;6.552;2022-07-22T07:42:23;18.30;99.90
51725;DHT22;37801;53.224;6.552;2022-07-22T07:44:49;18.30;99.90
51725;DHT22;37801;53.224;6.552;2022-07-22T07:47:15;18.30;99.90
51725;DHT22;37801;53.224;6.552;2022-07-22T07:49:45;18.40;99.90
51725;DHT22;37801;53.224;6.552;2022-07-22T07:52:11;18.40;99.90
51725;DHT22;37801;53.224;6.552;2022-07-22T07:54:39;18.40;99.90
51725;DHT22;37801;53.224;6.552;2022-07-22T07:57:09;18.40;99.90
51725;DHT22;37801;53.224;6.552;2022-07-22T07:59:37;18.40;99.90
51725;DHT22;37801;53.224;6.552;2022-07-22T08:02:02;18.40;99.90
51725;DHT22;37801;53.224;6.552;2022-07-22T08:04:29;18.50;99.90
51725;DHT22;37801;53.224;6.552;2022-07-22T08:06:55;18.50;99.90
51725;DHT22;37801;53.224;6.552;2022-07-22T08:09:20;18.60;99.90
51725;DHT22;37801;53.224;6.552;2022-07-22T08:11:46;18.60;99.90
51725;DHT22;37801;53.224;6.552;2022-07-22T08:14:12;18.60;99.90
51725;DHT22;37801;53.224;6.552;2022-07-22T08:16:38;18.50;99.90
51725;DHT22;37801;53.224;6.552;2022-07-22T08:19:04;18.50;99.90
51725;DHT22;37801;53.224;6.552;2022-07-22T08:21:29;18.50;99.90
51725;DHT22;37801;53.224;6.552;2022-07-22T08:23:55;18.50;99.90
51725;DHT22;37801;53.224;6.552;2022-07-22T08:26:21;18.50;99.90
51725;DHT22;37801;53.224;6.552;2022-07-22T08:28:46;18.40;99.90
51725;DHT22;37801;53.224;6.552;2022-07-22T08:31:12;18.40;99.90
51725;DHT22;37801;53.224;6.552;2022-07-22T08:33:38;18.40;99.90
51725;DHT22;37801;53.224;6.552;2022-07-22T08:36:06;18.40;99.90
51725;DHT22;37801;53.224;6.552;2022-07-22T08:38:32;18.40;99.90
51725;DHT22;37801;53.224;6.552;2022-07-22T08:41:00;18.40;99.90
51725;DHT22;37801;53.224;6.552;2022-07-22T08:43:26;18.40;99.90
51725;DHT22;37801;53.224;6.552;2022-07-22T08:45:52;18.50;99.90
51725;DHT22;37801;53.224;6.552;2022-07-22T08:48:18;18.40;99.90
51725;DHT22;37801;53.224;6.552;2022-07-22T08:50:44;18.50;99.90
51725;DHT22;37801;53.224;6.552;2022-07-22T08:53:11;18.50;99.90
51725;DHT22;37801;53.224;6.552;2022-07-22T08:55:44;18.40;99.90
51725;DHT22;37801;53.224;6.552;2022-07-22T08:58:11;18.40;99.90
51725;DHT22;37801;53.224;6.552;2022-07-22T09:00:38;18.40;99.90
51725;DHT22;37801;53.224;6.552;2022-07-22T09:03:20;18.40;99.90
51725;DHT22;37801;53.224;6.552;2022-07-22T09:05:47;18.40;99.90
51725;DHT22;37801;53.224;6.552;2022-07-22T09:08:14;18.50;99.90
51725;DHT22;37801;53.224;6.552;2022-07-22T09:10:39;18.40;99.90
51725;DHT22;37801;53.224;6.552;2022-07-22T09:13:09;18.50;99.90
51725;DHT22;37801;53.224;6.552;2022-07-22T09:15:37;18.40;99.90
51725;DHT22;37801;53.224;6.552;2022-07-22T09:18:05;18.40;99.90
51725;DHT22;37801;53.224;6.552;2022-07-22T09:20:32;18.40;99.90
51725;DHT22;37801;53.224;6.552;2022-07-22T09:22:58;18.50;99.90
51725;DHT22;37801;53.224;6.552;2022-07-22T09:30:34;18.80;99.90
51725;DHT22;37801;53.224;6.552;2022-07-22T09:33:00;18.90;99.90
51725;DHT22;37801;53.224;6.552;2022-07-22T09:35:26;18.90;99.90
51725;DHT22;37801;53.224;6.552;2022-07-22T09:37:54;18.80;99.90
51725;DHT22;37801;53.224;6.552;2022-07-22T09:40:29;18.70;99.90
51725;DHT22;37801;53.224;6.552;2022-07-22T09:42:58;18.60;99.90
51725;DHT22;37801;53.224;6.552;2022-07-22T09:45:26;18.50;99.90
51725;DHT22;37801;53.224;6.552;2022-07-22T09:47:54;18.50;99.90
51725;DHT22;37801;53.224;6.552;2022-07-22T09:50:31;18.40;99.90
51725;DHT22;37801;53.224;6.552;2022-07-22T09:52:59;18.50;99.90
51725;DHT22;37801;53.224;6.552;2022-07-22T09:55:26;18.60;99.90
51725;DHT22;37801;53.224;6.552;2022-07-22T09:57:54;18.70;99.90
51725;DHT22;37801;53.224;6.552;2022-07-22T10:00:23;18.70;99.90
51725;DHT22;37801;53.224;6.552;2022-07-22T10:05:22;19.00;99.90
51725;DHT22;37801;53.224;6.552;2022-07-22T10:07:49;19.00;99.90
51725;DHT22;37801;53.224;6.552;2022-07-22T10:10:17;19.10;99.90
51725;DHT22;37801;53.224;6.552;2022-07-22T10:12:44;19.20;99.90
51725;DHT22;37801;53.224;6.552;2022-07-22T10:15:12;19.30;99.90
51725;DHT22;37801;53.224;6.552;2022-07-22T10:17:42;19.30;99.90
51725;DHT22;37801;53.224;6.552;2022-07-22T10:20:09;19.30;99.90
51725;DHT22;37801;53.224;6.552;2022-07-22T10:25:08;19.50;99.90
51725;DHT22;37801;53.224;6.552;2022-07-22T10:27:45;19.60;99.90
51725;DHT22;37801;53.224;6.552;2022-07-22T10:30:13;19.70;99.90
51725;DHT22;37801;53.224;6.552;2022-07-22T10:32:39;19.80;99.90
51725;DHT22;37801;53.224;6.552;2022-07-22T10:37:38;19.80;99.90
51725;DHT22;37801;53.224;6.552;2022-07-22T10:46:08;19.50;99.90
51725;DHT22;37801;53.224;6.552;2022-07-22T10:48:15;19.60;99.90
51725;DHT22;37801;53.224;6.552;2022-07-22T10:50:47;19.60;99.90
51725;DHT22;37801;53.224;6.552;2022-07-22T10:53:54;19.70;99.90
51725;DHT22;37801;53.224;6.552;2022-07-22T10:58:57;19.90;99.90
51725;DHT22;37801;53.224;6.552;2022-07-22T11:01:27;20.00;99.90
51725;DHT22;37801;53.224;6.552;2022-07-22T11:03:53;20.10;99.90
51725;DHT22;37801;53.224;6.552;2022-07-22T11:06:26;20.20;99.90
51725;DHT22;37801;53.224;6.552;2022-07-22T11:09:00;20.20;99.90
51725;DHT22;37801;53.224;6.552;2022-07-22T11:14:18;20.00;99.90
51725;DHT22;37801;53.224;6.552;2022-07-22T11:16:45;19.80;99.90
51725;DHT22;37801;53.224;6.552;2022-07-22T11:19:12;19.70;99.90
51725;DHT22;37801;53.224;6.552;2022-07-22T11:21:38;19.70;99.90
51725;DHT22;37801;53.224;6.552;2022-07-22T11:24:07;19.70;99.90
51725;DHT22;37801;53.224;6.552;2022-07-22T11:29:03;19.70;99.90
51725;DHT22;37801;53.224;6.552;2022-07-22T11:31:29;19.80;99.90
51725;DHT22;37801;53.224;6.552;2022-07-22T11:34:05;19.70;99.90
51725;DHT22;37801;53.224;6.552;2022-07-22T11:36:34;19.80;99.90
51725;DHT22;37801;53.224;6.552;2022-07-22T11:39:00;19.80;99.90
51725;DHT22;37801;53.224;6.552;2022-07-22T11:41:28;19.90;99.90
51725;DHT22;37801;53.224;6.552;2022-07-22T11:43:55;19.90;99.90
51725;DHT22;37801;53.224;6.552;2022-07-22T11:46:21;20.00;99.90
51725;DHT22;37801;53.224;6.552;2022-07-22T11:48:48;20.10;99.90
51725;DHT22;37801;53.224;6.552;2022-07-22T11:51:14;20.10;99.90
51725;DHT22;37801;53.224;6.552;2022-07-22T11:53:41;20.20;99.90
51725;DHT22;37801;53.224;6.552;2022-07-22T11:56:09;20.10;99.90
51725;DHT22;37801;53.224;6.552;2022-07-22T11:58:47;20.10;99.90
51725;DHT22;37801;53.224;6.552;2022-07-22T12:01:16;20.10;99.90
51725;DHT22;37801;53.224;6.552;2022-07-22T12:03:47;20.20;99.90
51725;DHT22;37801;53.224;6.552;2022-07-22T12:06:17;20.30;99.90
51725;DHT22;37801;53.224;6.552;2022-07-22T12:08:45;20.30;99.90
51725;DHT22;37801;53.224;6.552;2022-07-22T12:11:14;20.40;99.90
51725;DHT22;37801;53.224;6.552;2022-07-22T12:13:42;20.30;99.90
51725;DHT22;37801;53.224;6.552;2022-07-22T12:16:27;20.40;99.90
51725;DHT22;37801;53.224;6.552;2022-07-22T12:18:58;20.40;99.90
51725;DHT22;37801;53.224;6.552;2022-07-22T12:21:27;20.40;99.90
51725;DHT22;37801;53.224;6.552;2022-07-22T12:23:56;20.50;99.90
51725;DHT22;37801;53.224;6.552;2022-07-22T12:26:48;20.60;99.90
51725;DHT22;37801;53.224;6.552;2022-07-22T12:29:27;20.60;99.90
51725;DHT22;37801;53.224;6.552;2022-07-22T12:32:01;20.60;99.90
51725;DHT22;37801;53.224;6.552;2022-07-22T12:37:00;20.60;99.90
51725;DHT22;37801;53.224;6.552;2022-07-22T12:39:28;20.50;99.90
51725;DHT22;37801;53.224;6.552;2022-07-22T12:41:55;20.50;99.90
51725;DHT22;37801;53.224;6.552;2022-07-22T12:44:25;20.40;99.90
51725;DHT22;37801;53.224;6.552;2022-07-22T12:46:53;20.40;99.90
51725;DHT22;37801;53.224;6.552;2022-07-22T12:49:23;20.40;99.90
51725;DHT22;37801;53.224;6.552;2022-07-22T12:52:09;20.30;99.90
51725;DHT22;37801;53.224;6.552;2022-07-22T12:54:36;20.40;99.90
51725;DHT22;37801;53.224;6.552;2022-07-22T12:57:03;20.40;99.90
51725;DHT22;37801;53.224;6.552;2022-07-22T12:59:29;20.50;99.90
51725;DHT22;37801;53.224;6.552;2022-07-22T13:01:55;20.60;99.90
51725;DHT22;37801;53.224;6.552;2022-07-22T13:04:21;20.70;99.90
51725;DHT22;37801;53.224;6.552;2022-07-22T13:06:47;20.80;99.90
51725;DHT22;37801;53.224;6.552;2022-07-22T13:09:13;20.90;99.90
51725;DHT22;37801;53.224;6.552;2022-07-22T13:11:38;21.00;99.90
51725;DHT22;37801;53.224;6.552;2022-07-22T13:14:13;21.00;99.90
51725;DHT22;37801;53.224;6.552;2022-07-22T13:16:40;21.00;99.90
51725;DHT22;37801;53.224;6.552;2022-07-22T13:19:05;21.10;99.90
51725;DHT22;37801;53.224;6.552;2022-07-22T13:21:32;21.10;99.90
51725;DHT22;37801;53.224;6.552;2022-07-22T13:23:57;21.10;99.90
51725;DHT22;37801;53.224;6.552;2022-07-22T13:26:23;21.10;99.90
51725;DHT22;37801;53.224;6.552;2022-07-22T13:28:51;21.00;99.90
51725;DHT22;37801;53.224;6.552;2022-07-22T13:31:17;20.90;99.90
51725;DHT22;37801;53.224;6.552;2022-07-22T13:33:43;21.00;99.90
51725;DHT22;37801;53.224;6.552;2022-07-22T13:36:08;21.00;99.90
51725;DHT22;37801;53.224;6.552;2022-07-22T13:38:34;20.90;99.90
51725;DHT22;37801;53.224;6.552;2022-07-22T13:41:00;20.90;99.90
51725;DHT22;37801;53.224;6.552;2022-07-22T13:43:26;20.80;99.90
51725;DHT22;37801;53.224;6.552;2022-07-22T13:45:52;20.80;99.90
51725;DHT22;37801;53.224;6.552;2022-07-22T13:48:18;20.70;99.90
51725;DHT22;37801;53.224;6.552;2022-07-22T13:50:46;20.70;99.90
51725;DHT22;37801;53.224;6.552;2022-07-22T13:53:12;20.60;99.90
51725;DHT22;37801;53.224;6.552;2022-07-22T13:55:41;20.60;99.90
51725;DHT22;37801;53.224;6.552;2022-07-22T13:58:07;20.70;99.90
51725;DHT22;37801;53.224;6.552;2022-07-22T14:00:33;20.60;99.90
51725;DHT22;37801;53.224;6.552;2022-07-22T14:02:59;20.60;99.90
51725;DHT22;37801;53.224;6.552;2022-07-22T14:05:25;20.60;99.90
51725;DHT22;37801;53.224;6.552;2022-07-22T14:07:51;20.50;99.90
51725;DHT22;37801;53.224;6.552;2022-07-22T14:10:17;20.40;99.90
51725;DHT22;37801;53.224;6.552;2022-07-22T14:12:43;20.50;99.90
51725;DHT22;37801;53.224;6.552;2022-07-22T14:15:10;20.50;99.90
51725;DHT22;37801;53.224;6.552;2022-07-22T14:17:36;20.50;99.90
51725;DHT22;37801;53.224;6.552;2022-07-22T14:20:02;20.50;99.90
51725;DHT22;37801;53.224;6.552;2022-07-22T14:22:29;20.50;99.90
51725;DHT22;37801;53.224;6.552;2022-07-22T14:24:56;20.30;99.90
51725;DHT22;37801;53.224;6.552;2022-07-22T14:27:22;20.20;99.90
51725;DHT22;37801;53.224;6.552;2022-07-22T14:29:47;20.00;99.90
51725;DHT22;37801;53.224;6.552;2022-07-22T14:32:13;20.00;99.90
51725;DHT22;37801;53.224;6.552;2022-07-22T14:34:39;20.00;99.90
51725;DHT22;37801;53.224;6.552;2022-07-22T14:37:05;19.90;99.90
51725;DHT22;37801;53.224;6.552;2022-07-22T14:39:30;19.90;99.90
51725;DHT22;37801;53.224;6.552;2022-07-22T14:41:56;19.80;99.90
51725;DHT22;37801;53.224;6.552;2022-07-22T14:44:22;19.80;99.90
51725;DHT22;37801;53.224;6.552;2022-07-22T14:46:47;19.80;99.90
51725;DHT22;37801;53.224;6.552;2022-07-22T14:49:13;19.70;99.90
51725;DHT22;37801;53.224;6.552;2022-07-22T14:51:39;19.70;99.90
51725;DHT22;37801;53.224;6.552;2022-07-22T14:54:05;19.60;99.90
51725;DHT22;37801;53.224;6.552;2022-07-22T14:56:32;19.60;99.90
51725;DHT22;37801;53.224;6.552;2022-07-22T14:58:57;19.70;99.90
51725;DHT22;37801;53.224;6.552;2022-07-22T15:01:23;19.90;99.90
51725;DHT22;37801;53.224;6.552;2022-07-22T15:03:49;20.00;99.90
51725;DHT22;37801;53.224;6.552;2022-07-22T15:06:14;20.00;99.90
51725;DHT22;37801;53.224;6.552;2022-07-22T15:08:40;20.10;99.90
51725;DHT22;37801;53.224;6.552;2022-07-22T15:11:06;20.10;99.90
51725;DHT22;37801;53.224;6.552;2022-07-22T15:13:32;20.00;99.90
51725;DHT22;37801;53.224;6.552;2022-07-22T15:15:58;20.00;99.90
51725;DHT22;37801;53.224;6.552;2022-07-22T15:18:24;20.00;99.90
51725;DHT22;37801;53.224;6.552;2022-07-22T15:20:50;20.10;99.90
51725;DHT22;37801;53.224;6.552;2022-07-22T15:23:20;20.00;99.90
51725;DHT22;37801;53.224;6.552;2022-07-22T15:25:46;20.00;99.90
51725;DHT22;37801;53.224;6.552;2022-07-22T15:28:11;20.00;99.90
51725;DHT22;37801;53.224;6.552;2022-07-22T15:30:37;20.00;99.90
51725;DHT22;37801;53.224;6.552;2022-07-22T15:33:03;20.00;99.90
51725;DHT22;37801;53.224;6.552;2022-07-22T15:35:30;20.10;99.90
51725;DHT22;37801;53.224;6.552;2022-07-22T15:37:55;20.00;99.90
51725;DHT22;37801;53.224;6.552;2022-07-22T15:40:21;20.00;99.90
51725;DHT22;37801;53.224;6.552;2022-07-22T15:42:47;20.00;99.90
51725;DHT22;37801;53.224;6.552;2022-07-22T15:45:13;19.90;99.90
51725;DHT22;37801;53.224;6.552;2022-07-22T15:47:39;19.80;99.90
51725;DHT22;37801;53.224;6.552;2022-07-22T15:50:05;19.80;99.90
51725;DHT22;37801;53.224;6.552;2022-07-22T15:52:31;19.70;99.90
51725;DHT22;37801;53.224;6.552;2022-07-22T15:54:56;19.60;99.90
51725;DHT22;37801;53.224;6.552;2022-07-22T15:57:22;19.40;99.90
51725;DHT22;37801;53.224;6.552;2022-07-22T16:00:07;19.40;99.90